Stadtlohn-Vreden Airfield

EDLS · Renania Settentrionale-Vestfalia, Germania

2 ottobre 2022

Tempo Codice Tempo metereologico Temp. Vista Base nuvolosa Vento METAR/SPECI
19:20
V
15 °C 10 km+ - 300° 300° 4 kt METAR EDLV 021720Z 30004KT CAVOK 15/09 Q1021
18:50
V
16 °C 10 km+ - 300° 300° 6 kt METAR EDLV 021650Z 30006KT CAVOK 16/10 Q1020
18:20
V
17 °C 10 km+ - 320° 320° 7 kt METAR EDLV 021620Z 32007KT 260V350 9999 FEW036 17/09 Q1020
17:50
V
17 °C 10 km+ - 300° 300° 9 kt METAR EDLV 021550Z 30009KT 270V340 9999 FEW036 17/09 Q1019
17:20
V
17 °C 10 km+ - 300° 300° 8 kt METAR EDLV 021520Z 30008KT 270V340 9999 FEW034 17/10 Q1019
16:50
V
17 °C 10 km+ - 300° 300° 6 kt METAR EDLV 021450Z 30006KT 260V330 9999 FEW043 17/10 Q1019
16:20
V
18 °C 10 km+ - 300° 300° 9 kt METAR EDLV 021420Z 30009KT 270V330 9999 SCT030 18/10 Q1019
15:50
V
18 °C 10 km+ - 270° 270° 12 kt METAR EDLV 021350Z 27012KT 9999 SCT031 18/11 Q1018
15:20
V
18 °C 10 km+ - 290° 290° 9 kt METAR EDLV 021320Z 29009KT 260V320 9999 FEW032 18/11 Q1018
14:50
V
17 °C 10 km+ - 280° 280° 10 kt METAR EDLV 021250Z 28010KT 250V310 9999 FEW031 17/11 Q1018
14:20
V
17 °C 10 km+ - 280° 280° 8 kt METAR EDLV 021220Z 28008KT 9999 FEW031 17/11 Q1018
13:50
V
17 °C 10 km+ - 280° 280° 9 kt METAR EDLV 021150Z 28009KT 9999 SCT031 SCT041 17/10 Q1018
13:20
V
17 °C 10 km+ 3.500 ft 270° 270° 13 kt METAR EDLV 021120Z 27013KT 260V320 9999 SCT024 BKN035 17/11 Q1018
12:50
M
17 °C 10 km+ 2.900 ft 280° 280° 9 kt METAR EDLV 021050Z 28009KT 9999 FEW018 BKN029 17/12 Q1018
12:20
V
16 °C 10 km+ - 270° 270° 9 kt METAR EDLV 021020Z 27009KT 9999 FEW014 SCT021 16/12 Q1017
11:50
M
16 °C 10 km+ 1.400 ft 260° 260° 9 kt METAR EDLV 020950Z 26009KT 230V300 9999 BKN014 16/13 Q1017
11:20
M
15 °C 10 km+ 1.200 ft 260° 260° 9 kt METAR EDLV 020920Z 26009KT 9999 BKN012 15/13 Q1017
10:50
M
15 °C 10 km+ 1.100 ft 250° 250° 10 kt METAR EDLV 020850Z 25010KT 9999 SCT009 BKN011 15/13 Q1017
10:20
I
15 °C 10 km+ 800 ft 240° 240° 9 kt METAR EDLV 020820Z 24009KT 9999 BKN008 BKN010 15/13 Q1016
09:50
I
14 °C 9 km 700 ft 240° 240° 9 kt METAR EDLV 020750Z 24009KT 9000 -DZ BKN007 BKN043 14/13 Q1016
09:20
V
14 °C 10 km+ - 240° 240° 8 kt METAR EDLV 020720Z 24008KT 9999 FEW008 14/13 Q1016
08:50
V
13 °C 10 km+ - 250° 250° 6 kt METAR EDLV 020650Z 25006KT CAVOK 13/12 Q1015
08:20
V
13 °C 10 km+ - 250° 250° 7 kt METAR EDLV 020620Z 25007KT 9999 -RA FEW043 13/12 Q1015
07:50
V
13 °C 10 km+ - 240° 240° 6 kt METAR EDLV 020550Z 24006KT 9999 FEW023 13/12 Q1015
07:20
V
13 °C 10 km+ - 250° 250° 7 kt METAR EDLV 020520Z 25007KT 220V280 CAVOK 13/12 Q1015
06:50
V
14 °C 10 km+ - 250° 250° 9 kt METAR EDLV 020450Z 25009KT 9999 -RA NSC 14/12 Q1014
06:20
V
14 °C 10 km+ - 240° 240° 8 kt METAR EDLV 020420Z 24008KT CAVOK 14/12 Q1014
05:50
V
14 °C 10 km+ - 230° 230° 8 kt METAR EDLV 020350Z 23008KT CAVOK 14/12 Q1014
05:20
V
14 °C 10 km+ - 230° 230° 7 kt METAR EDLV 020320Z 23007KT 9999 FEW034 14/13 Q1014
04:50
V
14 °C 10 km+ - 220° 220° 8 kt METAR EDLV 020250Z 22008KT 9999 SCT034 14/12 Q1014
04:20
V
13 °C 10 km+ 8.500 ft 220° 220° 7 kt METAR EDLV 020220Z AUTO 22007KT 9999 // FEW033/// BKN085/// OVC220/// 13/12 Q1014
03:50
V
13 °C 10 km+ 8.600 ft 220° 220° 6 kt METAR EDLV 020150Z AUTO 22006KT 9999 // FEW025/// SCT069/// BKN086/// 13/12 Q1014
03:20
M
13 °C 10 km+ 1.200 ft 240° 240° 5 kt METAR EDLV 020120Z AUTO 24005KT 9999 // BKN012/// BKN032/// 13/12 Q1014
02:50
M
13 °C 10 km+ 1.000 ft 260° 260° 8 kt METAR EDLV 020050Z AUTO 26008KT 9999 // BKN010/// OVC017/// 13/12 Q1014
02:20
V
13 °C 10 km+ 9.500 ft 240° 240° 8 kt METAR EDLV 020020Z AUTO 24008KT 220V280 9999 // SCT017/// BKN095/// OVC110/// 13/12 Q1014
01:50
V
13 °C 10 km+ 12.000 ft 220° 220° 9 kt METAR EDLV 012350Z AUTO 22009KT 9999 // BKN120/// 13/11 Q1014
01:20
V
13 °C 10 km+ - 220° 220° 8 kt METAR EDLV 012320Z AUTO 22008KT 9999 // SCT120/// 13/11 Q1014
00:50
V
13 °C 10 km+ - 220° 220° 9 kt METAR EDLV 012250Z AUTO 22009KT 9999 // NCD 13/10 Q1013
00:20
V
13 °C 10 km+ - 220° 220° 9 kt METAR EDLV 012220Z AUTO 22009KT 9999 // NCD 13/10 Q1013

1 ottobre 2022

Tempo Codice Tempo metereologico Temp. Vista Base nuvolosa Vento METAR/SPECI
23:50
V
13 °C 10 km+ - 230° 230° 7 kt METAR EDLV 012150Z 23007KT CAVOK 13/10 Q1013
23:20
V
12 °C 10 km+ - 220° 220° 7 kt METAR EDLV 012120Z 22007KT CAVOK 12/10 Q1013
22:50
V
13 °C 10 km+ - 220° 220° 7 kt METAR EDLV 012050Z 22007KT CAVOK 13/10 Q1012
22:20
V
13 °C 10 km+ - 230° 230° 7 kt METAR EDLV 012020Z 23007KT CAVOK 13/10 Q1012
21:50
V
13 °C 10 km+ - 220° 220° 7 kt METAR EDLV 011950Z 22007KT CAVOK 13/10 Q1012
21:20
V
13 °C 10 km+ - 230° 230° 6 kt METAR EDLV 011920Z 23006KT CAVOK 13/10 Q1012
20:50
V
13 °C 10 km+ - 240° 240° 6 kt METAR EDLV 011850Z 24006KT CAVOK 13/10 Q1011
20:20
V
13 °C 10 km+ - 240° 240° 7 kt METAR EDLV 011820Z 24007KT CAVOK 13/10 Q1011
19:50
V
14 °C 10 km+ - 260° 260° 6 kt METAR EDLV 011750Z 26006KT CAVOK 14/10 Q1010
19:20
V
15 °C 10 km+ - 280° 280° 11 kt METAR EDLV 011720Z 28011KT CAVOK 15/10 Q1010
18:50
V
16 °C 10 km+ - 280° 280° 10 kt METAR EDLV 011650Z 28010KT CAVOK 16/10 Q1009
18:20
V
17 °C 10 km+ - 270° 270° 14 kt METAR EDLV 011620Z 27014KT 9999 FEW041 17/10 Q1009
17:50
V
17 °C 10 km+ - 280° 280° 12 kt METAR EDLV 011550Z 28012KT 9999 FEW037 17/10 Q1008
17:20
V
17 °C 10 km+ - 290° 290° 10 kt METAR EDLV 011520Z 29010KT 260V320 CAVOK 17/10 Q1008
16:50
V
17 °C 10 km+ - 280° 280° 14 kt METAR EDLV 011450Z 28014KT CAVOK 17/10 Q1008
16:20
V
17 °C 10 km+ - 290° 290° 11 kt METAR EDLV 011420Z 29011KT CAVOK 17/09 Q1007
15:50
V
17 °C 10 km+ - 270° 270° 13 kt METAR EDLV 011350Z 27013KT 250V310 CAVOK 17/11 Q1007
15:20
V
16 °C 10 km+ - 280° 280° 13 kt METAR EDLV 011320Z 28013KT CAVOK 16/12 Q1006 RERA
14:50
M
15 °C 6 km 4.500 ft 280° 280° 15 kt METAR EDLV 011250Z 28015KT 6000 SHRA SCT029 BKN045 15/10 Q1006
14:20
V
18 °C 10 km+ - 260° 260° 18 kt METAR EDLV 011220Z 26018KT 9999 SCT027 18/12 Q1005
13:50
V
17 °C 10 km+ - 260° 260° 17 kt METAR EDLV 011150Z 26017KT 9999 SCT026 17/12 Q1005
13:20
V
17 °C 10 km+ - 260° 260° 16 kt METAR EDLV 011120Z 26016KT 9999 FEW020 17/12 Q1005 RERA
12:50
M
16 °C 10 km+ 2.900 ft 250° 250° 14 kt METAR EDLV 011050Z 25014KT 9999 SCT016 BKN029 16/13 Q1004
12:20
M
16 °C 10 km+ 2.000 ft 240° 240° 10 kt METAR EDLV 011020Z 24010KT 210V270 9999 SCT011 BKN020 16/13 Q1004
11:50
V
16 °C 10 km+ - 240° 240° 11 kt METAR EDLV 010950Z 24011KT 9999 SCT009 16/14 Q1004
11:20
V
15 °C 10 km+ - 240° 240° 11 kt METAR EDLV 010920Z 24011KT 9999 -RA FEW006 SCT008 15/14 Q1003
10:50
I
14 °C 9 km 900 ft 230° 230° 9 kt METAR EDLV 010850Z 23009KT 9000 -RA BKN009 14/13 Q1003
10:20
I
14 °C 10 km+ 900 ft 230° 230° 9 kt METAR EDLV 010820Z 23009KT 9999 BKN009 OVC019 14/13 Q1003
09:50
M
14 °C 10 km+ 2.200 ft 220° 220° 10 kt METAR EDLV 010750Z 22010KT 9999 SCT008 BKN022 14/12 Q1002
09:20
I
13 °C 10 km+ 800 ft 220° 220° 8 kt METAR EDLV 010720Z 22008KT 9999 BKN008 13/12 Q1002
08:50
I
13 °C 10 km+ 800 ft 220° 220° 11 kt METAR EDLV 010650Z 22011KT 9999 BKN008 OVC017 13/12 Q1002
08:20
I
13 °C 10 km+ 800 ft 230° 230° 10 kt METAR EDLV 010620Z 23010KT 9999 OVC008 13/11 Q1002
07:50
I
12 °C 10 km+ 900 ft 230° 230° 11 kt METAR EDLV 010550Z 23011KT 9999 OVC009 12/11 Q1001
07:20
I
12 °C 10 km+ 900 ft 220° 220° 12 kt METAR EDLV 010520Z 22012KT 180V240 9999 OVC009 12/11 Q1001
06:50
M
12 °C 10 km+ 1.100 ft 210° 210° 11 kt METAR EDLV 010450Z 21011KT 180V240 9999 OVC011 12/11 Q1001
06:20
M
12 °C 10 km+ 1.000 ft 200° 200° 11 kt METAR EDLV 010420Z 20011KT 9999 -RA OVC010 12/10 Q1001
05:50
I
12 °C 10 km+ 900 ft 210° 210° 13 kt METAR EDLV 010350Z 21013KT 170V230 9999 -RA BKN009 OVC019 12/10 Q1001
05:20
M
11 °C 10 km+ 1.000 ft 190° 190° 15 - 25 kt METAR EDLV 010320Z 19015G25KT 170V230 9999 -RA FEW008 BKN010 OVC017 11/10 Q1001
04:50
I
11 °C 4,4 km 1.000 ft 200° 200° 16 - 28 kt METAR EDLV 010250Z AUTO 20016G28KT 4400 // BKN010/// OVC017/// 11/10 Q1001
04:20
M
11 °C 7 km 1.900 ft 180° 180° 18 - 32 kt METAR EDLV 010220Z AUTO 18018G32KT 150V210 7000 // SCT012/// BKN019/// OVC070/// 11/10 Q1001
03:50
M
11 °C 7 km 1.600 ft 190° 190° 14 kt METAR EDLV 010150Z AUTO 19014KT 170V230 7000 // OVC016/// 11/10 Q1002
03:20
V
12 °C 10 km+ 4.100 ft 190° 190° 12 kt METAR EDLV 010120Z AUTO 19012KT 160V220 9999 // FEW018/// BKN041/// OVC053/// 12/10 Q1003
02:50
V
11 °C 10 km+ 7.500 ft 190° 190° 12 kt METAR EDLV 010050Z AUTO 19012KT 150V210 9999 // FEW017/// SCT057/// OVC075/// 11/09 Q1003
02:20
V
11 °C 9 km 7.400 ft 180° 180° 13 kt METAR EDLV 010020Z AUTO 18013KT 150V210 9000 // OVC074/// 11/10 Q1004
01:50
V
11 °C 8 km 6.800 ft 190° 190° 11 kt METAR EDLV 302350Z AUTO 19011KT 8000 // OVC068/// 11/09 Q1004
01:20
V
12 °C 10 km+ 6.900 ft 200° 200° 10 - 20 kt METAR EDLV 302320Z AUTO 20010G20KT 160V230 9999 // FEW044/// SCT051/// OVC069/// 12/09 Q1005
00:50
V
13 °C 10 km+ 9.300 ft 190° 190° 10 kt METAR EDLV 302250Z AUTO 19010KT 9999 // SCT071/// OVC093/// 13/08 Q1006
00:20
V
13 °C 10 km+ 13.000 ft 180° 180° 11 kt METAR EDLV 302220Z AUTO 18011KT 150V210 9999 // OVC130/// 13/08 Q1006

30 settembre 2022

Tempo Codice Tempo metereologico Temp. Vista Base nuvolosa Vento METAR/SPECI
23:50
V
13 °C 10 km+ - 180° 180° 10 kt METAR EDLV 302150Z 18010KT 150V210 CAVOK 13/08 Q1006
23:20
V
13 °C 10 km+ - 180° 180° 11 kt METAR EDLV 302120Z 18011KT 150V210 CAVOK 13/08 Q1006
22:50
V
13 °C 10 km+ - 180° 180° 9 kt METAR EDLV 302050Z 18009KT 150V210 CAVOK 13/08 Q1007
22:20
V
13 °C 10 km+ - 190° 190° 9 kt METAR EDLV 302020Z 19009KT CAVOK 13/08 Q1007
21:50
V
12 °C 10 km+ - 180° 180° 7 kt METAR EDLV 301950Z 18007KT CAVOK 12/08 Q1008
21:20
V
12 °C 10 km+ - 190° 190° 7 kt METAR EDLV 301920Z 19007KT 160V220 9999 FEW047 12/08 Q1008
20:50
V
12 °C 10 km+ - 190° 190° 6 kt METAR EDLV 301850Z 19006KT 9999 FEW046 12/08 Q1008
20:20
V
13 °C 10 km+ - 190° 190° 7 kt METAR EDLV 301820Z 19007KT CAVOK 13/08 Q1008
19:50
V
13 °C 10 km+ - 180° 180° 6 kt METAR EDLV 301750Z 18006KT CAVOK 13/08 Q1008
19:20
V
14 °C 10 km+ - 190° 190° 6 kt METAR EDLV 301720Z 19006KT 9999 FEW046 14/08 Q1008
18:50
V
15 °C 10 km+ - 200° 200° 7 kt METAR EDLV 301650Z 20007KT CAVOK 15/08 Q1009
18:20
V
16 °C 10 km+ - 200° 200° 7 kt METAR EDLV 301620Z 20007KT 160V230 9999 FEW041 16/08 Q1009
17:50
V
16 °C 10 km+ - 210° 210° 7 kt METAR EDLV 301550Z 21007KT 9999 FEW040 16/08 Q1009
17:20
V
17 °C 10 km+ - 200° 200° 9 kt METAR EDLV 301520Z 20009KT 160V230 9999 FEW040 17/08 Q1008
16:50
V
16 °C 10 km+ - 190° 190° 9 kt METAR EDLV 301450Z 19009KT 9999 FEW040 16/08 Q1009
Dati più vecchi

Noi e le terze parti seguiamo il tuo comportamento in internet sul nostro sito web con i cookie. Se continui, riteniamo che tu sia d'accordo con la nostra politica sui cookie. Per saperne di più